Aérodrome :
LOGIN :

S'inscrire | Disclaimer

   EN    FR    IT 

 










Légende :    VFR   VFR Marginal   IFR   IFR Intensif   IFR Très Intensif
Visi : 
Plafond : 
>= 8 km
>= 3000ft
5 à 8 km
1000 à 3000 ft
1500m à 5 km
500 à 1000 ft
800 à 1500m
200 à 500 ft
< 800m
< 200 ft
Symboles :   Orages  Brouillard  Fortes neiges  Fortes précipitations  Vent > 20 kt
SIGMETs :   Divers  Orages  Givrage  Turbulence  Onde Orograph.  Cendres Volcan.







- Altitude de l'aérodrome : 433 ft
- Voir les cartes d'approche


LFOC - Chateaudun

DERNIER METAR :
  • 200900Z AUTO 34005KT 310V010 9999 BKN018 BKN038 OVC100 15/11 Q1012 NOSIG

METARs EXPIRÉS :
  • 200830Z AUTO 34009KT 320V020 9999 BKN021 BKN058 OVC100 14/10 Q1012 NOSIG
  • 200800Z AUTO 35006KT 310V040 9999 FEW016 SCT047 OVC100 14/11 Q1011 NOSIG
  • 200730Z AUTO 34005KT CAVOK 13/10 Q1011 NOSIG
  • 200700Z AUTO 33005KT 300V360 9999 FEW029 BKN050 OVC096 12/10 Q1011 NOSIG
  • 200630Z AUTO 34004KT 9999 SCT026 BKN049 OVC086 12/10 Q1011

TAF TAF LFOC
Valide du 20 à 09h jusqu'au 21 à 09h UTC


200800Z 2009/2109 33010KT 9999 BKN025 BKN080
TEMPO 2011/2020 4000 -SHRA BKN035TCU
PROB40
TEMPO 2014/2020 33015G25KT -TSRA BKN030CB
BECMG 2100/2102 3000 BR
BECMG 2105/2107 CAVOK
Pas de NOTAMs connus pour ce terrain.



MET'MAP, la Météo Aéronautique d'un coup d'oeil ! - Copyright ORBIFLY Décembre 2007 - Disclaimer

ORBIFLY MET'MAP TEAM :

Programmation & Développement : Alexandra Zaïnal
Conception & Développement : Baudouin d'Aumeries
Co-Programmation & Développement : Marc-Olivier Méhu
Soutien technique & logistique : Manuel Goepfert

Contact : metmap@orbifly.com




SOURCES & CREDITS :

   NOAA